Edna T. Gattle — WDD2528 — position and weather

sailwx.info

Track history (hours):
 
Tides and Currents Weather Stations Pressure Air Temp Water Temp Dewpoint Dewpoint Depression Visibility Wind Speed Wind Dir Waves Ship Positions

Edna T. Gattle

More information available from US FCC via Universal Licensing System and Coast Guard Vessel Documentation Center.

Last reported at 2014-Sep-17 14:10 UTC. Time now 2014-Sep-18 03:43 UTC.
Position N 29°39' W 091°24'.

Length 33 m; draft 2.6 m.

Type: Towing. MMSI: 367116420.

Date/timePositionNaut miles runAvg speedWind from/ knotsBaromVisibWave heightAir tempDewpointWater temp
2014-Sep-17 14:10N 29°39' W 091°24'3 5.6
2014-Sep-17 13:33N 29°38' W 091°20'5 5.4
2014-Sep-17 12:34N 29°40' W 091°14'5 4.8
2014-Sep-17 11:33N 29°45' W 091°14'5 5.2
2014-Sep-17 10:33N 29°46' W 091°19'7 7.2
2014-Sep-17 09:33N 29°51' W 091°25'8 7.2
2014-Sep-17 08:23N 29°59' W 091°28'6 6.6
2014-Sep-17 07:30N 30°05' W 091°28'8 7.0
2014-Sep-17 06:21N 30°12' W 091°32'  
2014-Sep-08 01:33N 30°00' W 091°29'8 7.9
2014-Sep-08 00:33N 29°53' W 091°26'8 8.1
2014-Sep-07 23:33N 29°46' W 091°20'0 0.1
2014-Sep-07 22:34N 29°46' W 091°20'5 5.0
2014-Sep-07 21:33N 29°45' W 091°14'6 6.5
2014-Sep-07 20:33N 29°39' W 091°16'8 7.8
2014-Sep-07 19:30N 29°39' W 091°26'5 5.5
2014-Sep-07 18:33N 29°42' W 091°31'  
Track history (hours):
 
Tides and Currents Weather Stations Pressure Air Temp Water Temp Dewpoint Dewpoint Depression Visibility Wind Speed Wind Dir Waves Ship Positions

Edna T. Gattle

More information available from US FCC via Universal Licensing System and Coast Guard Vessel Documentation Center.

Last reported at 2014-Sep-17 14:10 UTC. Time now 2014-Sep-18 03:43 UTC.
Position N 29°39' W 091°24'.

Length 33 m; draft 2.6 m.

Type: Towing. MMSI: 367116420.

Date/timePositionNaut miles runAvg speedWind from/ knotsBaromVisibWave heightAir tempDewpointWater temp
2014-Sep-17 14:10N 29°39' W 091°24'3 5.6
2014-Sep-17 13:33N 29°38' W 091°20'5 5.4
2014-Sep-17 12:34N 29°40' W 091°14'5 4.8
2014-Sep-17 11:33N 29°45' W 091°14'5 5.2
2014-Sep-17 10:33N 29°46' W 091°19'7 7.2
2014-Sep-17 09:33N 29°51' W 091°25'8 7.2
2014-Sep-17 08:23N 29°59' W 091°28'6 6.6
2014-Sep-17 07:30N 30°05' W 091°28'8 7.0
2014-Sep-17 06:21N 30°12' W 091°32'  
2014-Sep-08 01:33N 30°00' W 091°29'8 7.9
2014-Sep-08 00:33N 29°53' W 091°26'8 8.1
2014-Sep-07 23:33N 29°46' W 091°20'0 0.1
2014-Sep-07 22:34N 29°46' W 091°20'5 5.0
2014-Sep-07 21:33N 29°45' W 091°14'6 6.5
2014-Sep-07 20:33N 29°39' W 091°16'8 7.8
2014-Sep-07 19:30N 29°39' W 091°26'5 5.5
2014-Sep-07 18:33N 29°42' W 091°31'  

Dump ship's entire track history